Flight Track Log - Related Links

Times and Time Zones

All times are in EDT time to prevent confusion due to time zone crossing. See the FLG3800 flight status page for this flight to view local times or setup timezone preferences in your user account.


Time Position Orientation Groundspeed Altitude Reporting Facility
EDT Latitude Longitude Course Direction KTS MPH feet Rate Location/Type
Fri 08:14:45 AM 42.2072 -85.5394 105° East 149 171 2,500  Level Chicago Center
Fri 08:15:47 AM 42.1806 -85.4722 118° Southeast 207 238 4,600 2,146 Climbing Chicago Center
Fri 08:16:48 AM 42.1644 -85.3703 102° East 260 299 6,900 2,617 Climbing Chicago Center
Fri 08:17:21 AM 42.1544 -85.3089 102° East 254 292 8,700 2,581 Climbing Cleveland Center
Fri 08:18:00 AM 42.1292 -85.0750 106° East  Level FlightAware Approximate
Fri 08:18:21 AM 42.1361 -85.1956 102° East 286 329 10,900  Level Cleveland Center
Fri 08:19:00 AM 42.0979 -84.9894 105° East  Level FlightAware Approximate
Fri 08:19:21 AM 42.1161 -85.0681 102° East 321 369 10,900  Level Cleveland Center
Fri 08:20:00 AM 42.0769 -84.8840 105° East  Level FlightAware Approximate
Fri 08:20:21 AM 42.0922 -84.9319 103° East 336 387 11,000  Level Cleveland Center
Fri 08:21:21 AM 42.0719 -84.8075 102° East 341 392 12,000 500 Climbing Cleveland Center
Fri 08:22:21 AM 42.0261 -84.6897 118° Southeast 341 392 12,000  Level Cleveland Center
Fri 08:23:21 AM 41.9844 -84.5697 115° Southeast 346 398 12,000  Level Cleveland Center
Fri 08:24:21 AM 41.9489 -84.4503 112° Southeast 346 398 12,000  Level Cleveland Center
Fri 08:25:21 AM 41.9114 -84.3281 112° Southeast 346 398 12,000  Level Cleveland Center
Fri 08:26:21 AM 41.8772 -84.2200 113° Southeast 341 392 12,000  Level Cleveland Center
Fri 08:26:58 AM 41.8508 -84.1319 112° Southeast 350 403 12,000  Level Cleveland Center
Fri 08:27:21 AM 41.8414 -84.1008 112° Southeast 341 392 12,000  Level Cleveland Center
Fri 08:27:59 AM 41.8442 -84.0117 88° East 325 374 12,000  Level Cleveland Center
Fri 08:28:21 AM 41.8511 -83.9869 69° East 317 365 12,000  Level Cleveland Center
Fri 08:29:00 AM 41.8969 -83.9197 47° Northeast 308 354 12,000  Level Cleveland Center
Fri 08:29:21 AM 41.9058 -83.8978 61° Northeast 285 328 12,000  Level Cleveland Center
Fri 08:30:07 AM 41.9600 -83.8225 46° Northeast 309 356 12,000  Level Cleveland Center
Fri 08:31:08 AM 42.0147 -83.7331 51° Northeast 309 356 12,000  Level Cleveland Center
Fri 08:32:09 AM 42.0692 -83.6406 52° Northeast 313 360 12,000  Level Cleveland Center
Fri 08:33:10 AM 42.0894 -83.5100 78° East 329 379 12,000  Level Cleveland Center
Fri 08:34:06 AM 42.1064 -83.4156 76° East 257 296 12,000 -169 Level Cleveland Center
Fri 08:34:21 AM 42.1067 -83.4017 88° East 301 346 11,800 -822 Descending Cleveland Center
Fri 08:35:19 AM 42.1339 -83.3106 68° East 250 288 11,000 -903 Descending Cleveland Center
Fri 08:36:14 AM 42.1567 -83.2303 69° East 250 288 10,100 -1,293 Descending Cleveland Center
Fri 08:37:15 AM 42.2036 -83.1761 41° Northeast 221 254 8,500 -1,547 Descending Cleveland Center
Fri 08:38:22 AM 42.2711 -83.1481 17° North 227 261 6,800 -1,475 Descending Cleveland Center
Fri 08:39:17 AM 42.3258 -83.1219 19° North 229 264 5,500 -982 Descending Cleveland Center
Fri 08:40:12 AM 42.3625 -83.1572 325° Northwest 188 216 5,000 -545 Descending Cleveland Center

Login

Don't have an account? Register now (free) for customized features, flight alerts, and more!